Time;durP1;ratioP1;P1;durP2;ratioP2;P2;SDS_P1;SDS_P2;PMS_P1;PMS_P2;Temp;Humidity;BMP_temperature;BMP_pressure;BME280_temperature;BME280_humidity;BME280_pressure;Samples;Min_cycle;Max_cycle;Signal;HPM_P1;HPM_P2
2023/08/28 00:02:11;;;;;;;3.15;0.73;;;;;;;;;;5130474;27;20043;-73
2023/08/28 00:04:37;;;;;;;2.10;0.60;;;;;;;;;;5130260;27;20050;-72
2023/08/28 00:07:04;;;;;;;2.88;0.55;;;;;;;;;;5130460;27;20050;-73
2023/08/28 00:09:31;;;;;;;3.03;0.70;;;;;;;;;;5129809;27;20124;-73
2023/08/28 00:11:57;;;;;;;2.05;0.57;;;;;;;;;;5130337;27;20054;-73
2023/08/28 00:14:24;;;;;;;0.90;0.47;;;;;;;;;;5130117;27;20058;-72
2023/08/28 00:16:51;;;;;;;3.03;0.65;;;;;;;;;;5130372;27;20047;-73
2023/08/28 00:19:18;;;;;;;1.65;0.45;;;;;;;;;;5129837;27;20593;-73
2023/08/28 00:21:45;;;;;;;2.90;0.50;;;;;;;;;;5130364;27;20058;-73
2023/08/28 00:24:12;;;;;;;1.95;0.60;;;;;;;;;;5129466;27;20043;-72
2023/08/28 00:26:41;;;;;;;2.47;0.65;;;;;;;;;;5129954;27;20115;-72
2023/08/28 00:29:08;;;;;;;3.35;0.57;;;;;;;;;;5129720;27;20054;-73
2023/08/28 00:31:35;;;;;;;0.82;0.50;;;;;;;;;;5129675;27;20699;-72
2023/08/28 00:34:02;;;;;;;1.98;0.50;;;;;;;;;;5129573;27;20369;-72
2023/08/28 00:36:28;;;;;;;2.63;0.80;;;;;;;;;;5130030;27;20065;-72
2023/08/28 00:38:55;;;;;;;0.95;0.57;;;;;;;;;;5128940;27;20051;-73
2023/08/28 00:41:22;;;;;;;1.73;0.38;;;;;;;;;;5129121;27;20130;-73
2023/08/28 00:43:48;;;;;;;6.72;0.60;;;;;;;;;;5129485;27;20134;-73
2023/08/28 00:46:16;;;;;;;1.88;0.50;;;;;;;;;;5129843;27;20083;-72
2023/08/28 00:48:42;;;;;;;2.55;0.85;;;;;;;;;;5129321;27;20451;-72
2023/08/28 00:51:09;;;;;;;2.85;0.60;;;;;;;;;;5129579;27;20050;-74
2023/08/28 00:53:36;;;;;;;1.63;0.60;;;;;;;;;;5129207;27;20047;-73
2023/08/28 00:56:03;;;;;;;3.55;0.55;;;;;;;;;;5129738;27;20043;-74
2023/08/28 00:58:30;;;;;;;4.00;0.73;;;;;;;;;;5129681;27;20046;-75
2023/08/28 01:00:57;;;;;;;5.90;0.70;;;;;;;;;;5129988;27;20043;-72
2023/08/28 01:03:24;;;;;;;1.90;0.70;;;;;;;;;;5129392;28;20471;-72
2023/08/28 01:06:12;;;;;;;2.58;0.52;;;;;;;;;;5129602;27;20047;-72
2023/08/28 01:08:56;;;;;;;5.65;0.60;;;;;;;;;;5129016;27;20047;-72
2023/08/28 01:11:49;;;;;;;3.90;0.75;;;;;;;;;;5129800;27;20082;-73
2023/08/28 01:14:25;;;;;;;3.45;0.80;;;;;;;;;;5129315;27;20067;-72
2023/08/28 01:16:57;;;;;;;1.73;0.95;;;;;;;;;;5129560;27;20139;-73
2023/08/28 01:19:37;;;;;;;2.60;0.88;;;;;;;;;;5129055;27;20054;-72
2023/08/28 01:22:13;;;;;;;4.75;0.85;;;;;;;;;;5129648;27;20139;-72
2023/08/28 01:24:45;;;;;;;2.75;0.50;;;;;;;;;;5128653;27;20047;-72
2023/08/28 01:27:14;;;;;;;6.30;0.75;;;;;;;;;;5129263;27;20063;-73
2023/08/28 01:29:40;;;;;;;1.65;0.57;;;;;;;;;;5129290;27;20047;-72
2023/08/28 01:32:07;;;;;;;1.90;0.60;;;;;;;;;;5129447;28;20043;-72
2023/08/28 01:34:35;;;;;;;2.67;0.57;;;;;;;;;;5128931;27;20439;-72
2023/08/28 01:37:12;;;;;;;2.90;0.70;;;;;;;;;;5129570;27;20049;-72
2023/08/28 01:39:43;;;;;;;2.22;0.70;;;;;;;;;;5128306;27;20055;-72
2023/08/28 01:42:10;;;;;;;2.60;0.60;;;;;;;;;;5129202;27;20088;-73
2023/08/28 01:44:37;;;;;;;4.30;0.70;;;;;;;;;;5127780;28;20544;-73
2023/08/28 01:47:05;;;;;;;2.50;0.70;;;;;;;;;;5129529;27;20050;-72
2023/08/28 01:49:33;;;;;;;3.13;0.73;;;;;;;;;;5128767;27;20058;-72
2023/08/28 01:52:00;;;;;;;2.05;0.60;;;;;;;;;;5130858;27;20043;-72
2023/08/28 01:54:26;;;;;;;5.03;0.80;;;;;;;;;;5132234;27;20046;-72
2023/08/28 01:56:53;;;;;;;3.40;0.70;;;;;;;;;;5133167;27;20043;-72
2023/08/28 01:59:20;;;;;;;4.22;0.70;;;;;;;;;;5132199;27;20490;-72
2023/08/28 02:01:46;;;;;;;2.65;0.50;;;;;;;;;;5132738;27;20043;-73
2023/08/28 02:04:13;;;;;;;4.10;0.60;;;;;;;;;;5132617;27;20495;-73
2023/08/28 02:06:40;;;;;;;3.03;0.80;;;;;;;;;;5132628;27;20055;-73
2023/08/28 02:09:06;;;;;;;1.95;0.70;;;;;;;;;;5132388;27;20046;-72
2023/08/28 02:11:33;;;;;;;3.60;0.68;;;;;;;;;;5132470;27;20046;-73
2023/08/28 02:13:59;;;;;;;1.88;0.63;;;;;;;;;;5132657;27;20047;-73
2023/08/28 02:16:29;;;;;;;3.72;0.68;;;;;;;;;;5132222;27;20043;-73
2023/08/28 02:18:56;;;;;;;2.92;0.70;;;;;;;;;;5132157;27;20050;-74
2023/08/28 02:21:22;;;;;;;3.25;0.80;;;;;;;;;;5132036;27;20043;-73
2023/08/28 02:23:49;;;;;;;2.25;0.55;;;;;;;;;;5131910;27;20058;-73
2023/08/28 02:26:16;;;;;;;3.20;0.55;;;;;;;;;;5132096;27;20047;-74
2023/08/28 02:28:42;;;;;;;3.35;0.70;;;;;;;;;;5132098;27;20050;-74
2023/08/28 02:31:09;;;;;;;3.75;0.60;;;;;;;;;;5132094;27;20392;-74
2023/08/28 02:33:36;;;;;;;1.25;0.50;;;;;;;;;;5132070;27;20051;-73
2023/08/28 02:36:02;;;;;;;3.10;0.73;;;;;;;;;;5132053;27;20051;-73
2023/08/28 02:38:29;;;;;;;3.72;0.55;;;;;;;;;;5131816;27;20047;-73
2023/08/28 02:41:07;;;;;;;2.83;0.80;;;;;;;;;;5131928;27;20482;-74
2023/08/28 02:43:34;;;;;;;2.85;0.70;;;;;;;;;;5132470;27;20055;-73
2023/08/28 02:46:01;;;;;;;3.67;0.52;;;;;;;;;;5131795;27;20043;-73
2023/08/28 02:48:28;;;;;;;4.65;0.80;;;;;;;;;;5131808;27;20039;-73
2023/08/28 02:50:55;;;;;;;2.25;0.60;;;;;;;;;;5131623;27;20611;-73
2023/08/28 02:53:21;;;;;;;0.80;0.40;;;;;;;;;;5131487;27;20050;-73
2023/08/28 02:56:17;;;;;;;5.00;0.82;;;;;;;;;;5131544;27;20043;-72
2023/08/28 02:58:44;;;;;;;1.73;0.60;;;;;;;;;;5131711;27;20043;-73
2023/08/28 03:01:11;;;;;;;2.97;0.68;;;;;;;;;;5131495;27;20078;-73
2023/08/28 03:03:37;;;;;;;1.58;0.63;;;;;;;;;;5131038;27;20411;-73
2023/08/28 03:06:04;;;;;;;1.60;0.60;;;;;;;;;;5131391;27;20126;-73
2023/08/28 03:08:31;;;;;;;2.85;0.70;;;;;;;;;;5131186;27;20122;-72
2023/08/28 03:10:58;;;;;;;1.38;0.60;;;;;;;;;;5131601;27;20051;-73
2023/08/28 03:13:24;;;;;;;5.82;0.65;;;;;;;;;;5131323;27;20096;-73
2023/08/28 03:15:51;;;;;;;2.92;0.50;;;;;;;;;;5131241;27;20044;-72
2023/08/28 03:18:18;;;;;;;4.25;0.88;;;;;;;;;;5131515;27;20126;-73
2023/08/28 03:20:45;;;;;;;2.85;0.90;;;;;;;;;;5130858;27;20557;-73
2023/08/28 03:23:11;;;;;;;5.63;0.73;;;;;;;;;;5131117;27;20074;-72
2023/08/28 03:25:38;;;;;;;5.28;1.10;;;;;;;;;;5130759;27;20051;-72
2023/08/28 03:28:07;;;;;;;8.60;0.70;;;;;;;;;;5130912;27;20049;-74
2023/08/28 03:30:34;;;;;;;2.03;0.63;;;;;;;;;;5130700;27;20527;-74
2023/08/28 03:33:01;;;;;;;6.72;0.88;;;;;;;;;;5130827;27;20445;-74
2023/08/28 03:35:29;;;;;;;2.40;0.68;;;;;;;;;;5130806;27;20054;-74
2023/08/28 03:37:56;;;;;;;4.97;0.88;;;;;;;;;;5130772;27;20074;-73
2023/08/28 03:40:23;;;;;;;3.67;0.70;;;;;;;;;;5130523;27;20717;-73
2023/08/28 03:42:49;;;;;;;10.05;0.65;;;;;;;;;;5129647;27;20049;-73
2023/08/28 03:45:16;;;;;;;2.28;0.70;;;;;;;;;;5131203;27;20126;-73
2023/08/28 03:47:44;;;;;;;3.65;0.70;;;;;;;;;;5130483;27;20047;-72
2023/08/28 03:50:11;;;;;;;4.60;0.82;;;;;;;;;;5129366;27;20281;-73
2023/08/28 03:52:37;;;;;;;1.80;0.63;;;;;;;;;;5130298;27;20050;-73
2023/08/28 03:55:04;;;;;;;3.45;0.60;;;;;;;;;;5130392;27;20043;-74
2023/08/28 03:57:34;;;;;;;1.83;0.70;;;;;;;;;;5130228;27;20384;-73
2023/08/28 04:00:05;;;;;;;4.60;0.88;;;;;;;;;;5130463;27;20049;-73
2023/08/28 04:02:32;;;;;;;4.25;0.82;;;;;;;;;;5130230;27;20092;-74
2023/08/28 04:05:02;;;;;;;2.80;0.50;;;;;;;;;;5130264;27;20134;-74
2023/08/28 04:07:34;;;;;;;2.50;0.63;;;;;;;;;;5130014;27;20047;-72
2023/08/28 04:10:01;;;;;;;5.25;0.82;;;;;;;;;;5130204;27;20054;-72
2023/08/28 04:12:27;;;;;;;2.20;0.75;;;;;;;;;;5130090;27;20070;-72
2023/08/28 04:14:55;;;;;;;3.75;1.02;;;;;;;;;;5129413;27;20487;-72
2023/08/28 04:17:21;;;;;;;2.38;0.82;;;;;;;;;;5130200;27;20111;-72
2023/08/28 04:19:50;;;;;;;2.92;0.70;;;;;;;;;;5129799;27;20070;-73
2023/08/28 04:22:20;;;;;;;3.40;0.80;;;;;;;;;;5129764;27;20460;-73
2023/08/28 04:24:49;;;;;;;10.27;1.02;;;;;;;;;;5129913;27;20047;-73
2023/08/28 04:27:16;;;;;;;2.50;0.65;;;;;;;;;;5130057;27;20044;-73
2023/08/28 04:29:43;;;;;;;3.65;0.70;;;;;;;;;;5129760;27;20779;-73
2023/08/28 04:32:10;;;;;;;4.43;1.00;;;;;;;;;;5130134;27;20047;-73
2023/08/28 04:34:36;;;;;;;2.40;0.70;;;;;;;;;;5130182;27;20050;-73
2023/08/28 04:37:03;;;;;;;3.03;0.70;;;;;;;;;;5129508;27;20051;-72
2023/08/28 04:39:30;;;;;;;3.13;0.80;;;;;;;;;;5129512;27;20043;-73
2023/08/28 04:41:56;;;;;;;5.47;0.70;;;;;;;;;;5129854;27;20092;-72
2023/08/28 04:44:23;;;;;;;3.88;0.90;;;;;;;;;;5128542;27;20043;-73
2023/08/28 04:46:50;;;;;;;3.53;0.73;;;;;;;;;;5129929;27;20043;-73
2023/08/28 04:49:17;;;;;;;3.92;0.77;;;;;;;;;;5129921;27;20096;-73
2023/08/28 04:51:43;;;;;;;2.40;0.80;;;;;;;;;;5129446;27;20051;-72
2023/08/28 04:54:10;;;;;;;2.90;0.80;;;;;;;;;;5129270;27;20434;-73
2023/08/28 04:56:37;;;;;;;2.20;0.70;;;;;;;;;;5128254;28;20051;-73
2023/08/28 04:59:04;;;;;;;2.60;1.00;;;;;;;;;;5129301;27;20047;-73
2023/08/28 05:01:31;;;;;;;4.47;0.70;;;;;;;;;;5129389;27;20047;-73
2023/08/28 05:03:58;;;;;;;4.35;0.82;;;;;;;;;;5130112;27;20047;-73
2023/08/28 05:06:25;;;;;;;4.68;1.00;;;;;;;;;;5129556;27;20058;-72
2023/08/28 05:08:52;;;;;;;3.63;0.60;;;;;;;;;;5129202;27;20616;-74
2023/08/28 05:11:19;;;;;;;3.88;0.80;;;;;;;;;;5129325;27;20047;-73
2023/08/28 05:13:45;;;;;;;6.78;0.93;;;;;;;;;;5129333;28;20097;-73
2023/08/28 05:16:12;;;;;;;3.38;0.63;;;;;;;;;;5129164;28;20525;-73
2023/08/28 05:18:39;;;;;;;3.95;1.10;;;;;;;;;;5129463;27;20130;-72
2023/08/28 05:21:09;;;;;;;3.28;0.80;;;;;;;;;;5127932;28;20073;-73
2023/08/28 05:23:35;;;;;;;3.40;0.80;;;;;;;;;;5129050;28;20046;-72
2023/08/28 05:26:02;;;;;;;2.70;0.70;;;;;;;;;;5130074;27;20047;-74
2023/08/28 05:28:31;;;;;;;3.40;0.93;;;;;;;;;;5133230;27;20054;-74
2023/08/28 05:30:58;;;;;;;3.28;0.80;;;;;;;;;;5149283;27;20054;-74
2023/08/28 05:33:25;;;;;;;2.47;0.63;;;;;;;;;;5132758;27;20048;-74
2023/08/28 05:35:51;;;;;;;3.58;0.80;;;;;;;;;;5133545;27;20050;-75
2023/08/28 05:38:19;;;;;;;5.53;0.68;;;;;;;;;;5132953;27;20051;-74
2023/08/28 05:40:46;;;;;;;3.72;0.80;;;;;;;;;;5133526;27;20058;-73
2023/08/28 05:43:13;;;;;;;1.77;0.75;;;;;;;;;;5132983;27;20096;-73
2023/08/28 05:45:39;;;;;;;1.40;0.55;;;;;;;;;;5133215;27;20039;-73
2023/08/28 05:48:07;;;;;;;2.53;0.70;;;;;;;;;;5132841;27;20043;-73
2023/08/28 05:50:36;;;;;;;2.63;0.70;;;;;;;;;;5132989;27;20043;-73
2023/08/28 05:53:04;;;;;;;4.50;0.85;;;;;;;;;;5132295;27;20130;-73
2023/08/28 05:55:30;;;;;;;2.60;0.57;;;;;;;;;;5133083;27;20092;-73
2023/08/28 05:57:57;;;;;;;1.98;0.80;;;;;;;;;;5133118;27;20092;-74
2023/08/28 06:00:25;;;;;;;5.97;0.93;;;;;;;;;;5132771;27;20562;-74
2023/08/28 06:02:52;;;;;;;4.15;0.93;;;;;;;;;;5132941;27;20104;-74
2023/08/28 06:05:19;;;;;;;2.45;0.77;;;;;;;;;;5132815;27;20243;-73
2023/08/28 06:07:46;;;;;;;3.83;0.88;;;;;;;;;;5131852;27;20499;-73
2023/08/28 06:10:17;;;;;;;2.70;0.77;;;;;;;;;;5132517;27;20491;-72
2023/08/28 06:12:47;;;;;;;2.88;0.73;;;;;;;;;;5132636;27;20327;-73
2023/08/28 06:15:18;;;;;;;3.58;0.90;;;;;;;;;;5133270;27;20163;-74
2023/08/28 06:17:50;;;;;;;3.15;0.60;;;;;;;;;;5132438;27;20066;-73
2023/08/28 06:20:17;;;;;;;7.00;1.40;;;;;;;;;;5132253;27;20051;-73
2023/08/28 06:22:44;;;;;;;3.80;0.77;;;;;;;;;;5131701;27;20130;-73
2023/08/28 06:25:11;;;;;;;3.08;1.13;;;;;;;;;;5132574;27;20044;-73
2023/08/28 06:27:38;;;;;;;2.80;0.90;;;;;;;;;;5132148;27;20550;-73
2023/08/28 06:30:06;;;;;;;4.88;0.82;;;;;;;;;;5132263;27;20051;-72
2023/08/28 06:32:33;;;;;;;2.25;0.70;;;;;;;;;;5132289;27;20049;-73
2023/08/28 06:35:00;;;;;;;2.83;0.80;;;;;;;;;;5132569;27;20577;-73
2023/08/28 06:37:27;;;;;;;1.50;0.60;;;;;;;;;;5131308;27;20054;-72
2023/08/28 06:39:54;;;;;;;6.40;0.88;;;;;;;;;;5131382;27;20051;-73
2023/08/28 06:42:21;;;;;;;1.40;0.60;;;;;;;;;;5132125;27;20150;-73
2023/08/28 06:44:49;;;;;;;2.00;0.80;;;;;;;;;;5131916;27;20118;-73
2023/08/28 06:47:16;;;;;;;1.77;0.60;;;;;;;;;;5131996;27;20047;-73
2023/08/28 06:49:43;;;;;;;4.00;0.60;;;;;;;;;;5131731;27;20050;-73
2023/08/28 06:52:09;;;;;;;1.33;0.70;;;;;;;;;;5131918;27;20066;-73
2023/08/28 06:54:36;;;;;;;4.05;0.70;;;;;;;;;;5131172;27;20582;-73
2023/08/28 06:57:17;;;;;;;2.90;0.80;;;;;;;;;;5131937;27;20119;-73
2023/08/28 06:59:44;;;;;;;3.88;0.70;;;;;;;;;;5131233;27;20049;-73
2023/08/28 07:02:11;;;;;;;2.78;0.80;;;;;;;;;;5131523;27;20043;-73
2023/08/28 07:04:38;;;;;;;1.02;0.63;;;;;;;;;;5131390;27;20074;-73
2023/08/28 07:07:04;;;;;;;3.42;0.80;;;;;;;;;;5131748;27;20043;-73
2023/08/28 07:09:32;;;;;;;2.70;0.90;;;;;;;;;;5131170;27;20122;-74
2023/08/28 07:11:59;;;;;;;3.55;0.70;;;;;;;;;;5131583;27;20058;-73
2023/08/28 07:14:26;;;;;;;2.00;0.75;;;;;;;;;;5131002;27;20414;-73
2023/08/28 07:16:52;;;;;;;1.90;0.70;;;;;;;;;;5131281;27;20047;-73
2023/08/28 07:19:19;;;;;;;1.75;0.70;;;;;;;;;;5130875;27;20389;-73
2023/08/28 07:21:46;;;;;;;3.80;0.68;;;;;;;;;;5131037;27;20047;-73
2023/08/28 07:24:12;;;;;;;2.08;0.80;;;;;;;;;;5130608;27;20502;-73
2023/08/28 07:26:39;;;;;;;1.98;0.65;;;;;;;;;;5131580;27;20051;-74
2023/08/28 07:29:05;;;;;;;2.75;0.63;;;;;;;;;;5130944;27;20047;-73
2023/08/28 07:31:32;;;;;;;2.08;0.52;;;;;;;;;;5130693;27;20650;-74
2023/08/28 07:33:59;;;;;;;1.05;0.70;;;;;;;;;;5130649;27;20046;-73
2023/08/28 07:36:26;;;;;;;2.20;0.70;;;;;;;;;;5131196;27;20043;-74
2023/08/28 07:38:53;;;;;;;1.73;0.60;;;;;;;;;;5130307;27;20136;-73
2023/08/28 07:41:20;;;;;;;2.55;1.00;;;;;;;;;;5130687;27;20051;-74
2023/08/28 07:43:47;;;;;;;2.88;0.70;;;;;;;;;;5131057;27;20043;-71
2023/08/28 07:46:14;;;;;;;1.38;0.55;;;;;;;;;;5129533;27;20062;-74
2023/08/28 07:48:41;;;;;;;2.30;0.75;;;;;;;;;;5130787;27;20050;-74
2023/08/28 07:51:09;;;;;;;1.70;0.47;;;;;;;;;;5146485;27;20043;-74
2023/08/28 07:53:37;;;;;;;0.90;0.52;;;;;;;;;;5130026;27;20691;-73
2023/08/28 07:56:04;;;;;;;1.83;0.50;;;;;;;;;;5130747;27;20043;-73
2023/08/28 07:58:32;;;;;;;1.33;0.57;;;;;;;;;;5130504;27;20096;-73
2023/08/28 08:01:02;;;;;;;0.35;0.30;;;;;;;;;;5129112;27;20047;-73
2023/08/28 08:03:28;;;;;;;2.13;0.50;;;;;;;;;;5130752;27;20043;-73
2023/08/28 08:05:55;;;;;;;0.63;0.47;;;;;;;;;;5130453;27;20054;-73
2023/08/28 08:08:22;;;;;;;2.67;0.80;;;;;;;;;;5130145;27;20133;-74
2023/08/28 08:10:49;;;;;;;1.13;0.52;;;;;;;;;;5130091;27;20047;-74
2023/08/28 08:13:17;;;;;;;1.75;0.55;;;;;;;;;;5130224;27;20046;-73
2023/08/28 08:15:44;;;;;;;0.57;0.40;;;;;;;;;;5130407;27;20078;-74
2023/08/28 08:18:10;;;;;;;0.80;0.40;;;;;;;;;;5130566;27;20047;-73
2023/08/28 08:20:37;;;;;;;0.60;0.40;;;;;;;;;;5129978;27;20047;-74
2023/08/28 08:23:04;;;;;;;0.77;0.50;;;;;;;;;;5129786;27;20506;-74
2023/08/28 08:25:33;;;;;;;1.05;0.60;;;;;;;;;;5129864;27;20092;-73
2023/08/28 08:28:02;;;;;;;0.65;0.43;;;;;;;;;;5130031;27;20075;-73
2023/08/28 08:30:29;;;;;;;1.60;0.60;;;;;;;;;;5129789;27;20429;-73
2023/08/28 08:32:56;;;;;;;0.77;0.50;;;;;;;;;;5129897;27;20053;-74
2023/08/28 08:35:24;;;;;;;0.82;0.45;;;;;;;;;;5129731;27;20051;-74
2023/08/28 08:37:52;;;;;;;0.50;0.40;;;;;;;;;;5130027;27;20073;-73
2023/08/28 08:40:24;;;;;;;0.50;0.40;;;;;;;;;;5129621;27;20062;-73
2023/08/28 08:42:52;;;;;;;2.50;0.40;;;;;;;;;;5129937;27;20046;-74
2023/08/28 08:45:23;;;;;;;0.55;0.32;;;;;;;;;;5129665;27;20503;-73
2023/08/28 08:47:53;;;;;;;0.95;0.40;;;;;;;;;;5129666;27;20054;-72
2023/08/28 08:50:22;;;;;;;0.98;0.40;;;;;;;;;;5129705;27;20071;-73
2023/08/28 08:52:49;;;;;;;0.20;0.20;;;;;;;;;;5129300;27;20039;-73
2023/08/28 08:55:34;;;;;;;1.08;0.30;;;;;;;;;;5129747;27;20047;-73
2023/08/28 08:58:10;;;;;;;0.50;0.30;;;;;;;;;;5129841;27;20066;-73
2023/08/28 09:00:39;;;;;;;0.60;0.35;;;;;;;;;;5129168;27;20039;-72
2023/08/28 09:03:09;;;;;;;0.68;0.30;;;;;;;;;;5128954;27;20079;-73
2023/08/28 09:05:37;;;;;;;0.32;0.30;;;;;;;;;;5128326;28;20039;-73
2023/08/28 09:08:06;;;;;;;0.20;0.20;;;;;;;;;;5129244;27;20051;-73
2023/08/28 09:10:34;;;;;;;2.47;0.20;;;;;;;;;;5129377;28;20047;-73
2023/08/28 09:13:00;;;;;;;0.40;0.25;;;;;;;;;;5128395;28;20122;-73
2023/08/28 09:15:27;;;;;;;1.15;0.35;;;;;;;;;;5129287;27;20054;-73
2023/08/28 09:17:54;;;;;;;0.85;0.43;;;;;;;;;;5129466;27;20512;-73
2023/08/28 09:20:21;;;;;;;0.70;0.30;;;;;;;;;;5128833;27;20522;-73
2023/08/28 09:22:50;;;;;;;0.60;0.40;;;;;;;;;;5128788;27;20635;-73
2023/08/28 09:25:23;;;;;;;0.20;0.20;;;;;;;;;;5129220;27;20039;-73
2023/08/28 09:27:54;;;;;;;0.13;0.13;;;;;;;;;;5129391;27;20391;-73
2023/08/28 09:30:36;;;;;;;0.52;0.40;;;;;;;;;;5128710;28;20054;-73
2023/08/28 09:33:07;;;;;;;0.40;0.25;;;;;;;;;;5128891;27;20427;-73
2023/08/28 09:35:42;;;;;;;0.30;0.28;;;;;;;;;;5128992;27;20410;-73
2023/08/28 09:38:10;;;;;;;0.93;0.40;;;;;;;;;;5128728;27;20403;-73
2023/08/28 09:40:40;;;;;;;0.20;0.20;;;;;;;;;;5128677;27;20526;-73
2023/08/28 09:43:16;;;;;;;0.27;0.20;;;;;;;;;;5128819;27;20079;-73
2023/08/28 09:45:45;;;;;;;1.13;0.40;;;;;;;;;;5129054;27;20039;-73
2023/08/28 09:48:12;;;;;;;0.65;0.30;;;;;;;;;;5129284;27;20047;-74
2023/08/28 09:50:42;;;;;;;0.30;0.22;;;;;;;;;;5128986;27;20039;-73
2023/08/28 09:53:14;;;;;;;0.30;0.20;;;;;;;;;;5128766;27;20054;-73
2023/08/28 09:55:51;;;;;;;0.68;0.40;;;;;;;;;;5129069;27;20069;-73
2023/08/28 09:58:19;;;;;;;0.22;0.10;;;;;;;;;;5129122;27;20039;-72
2023/08/28 10:00:45;;;;;;;0.40;0.25;;;;;;;;;;5128962;27;20059;-73
2023/08/28 10:03:13;;;;;;;0.38;0.30;;;;;;;;;;5128898;28;20130;-73
2023/08/28 10:05:44;;;;;;;0.47;0.30;;;;;;;;;;5128729;27;20051;-73
2023/08/28 10:08:12;;;;;;;;;;;;;;;;;;5129352;27;20039;-73
2023/08/28 10:10:41;;;;;;;0.43;0.30;;;;;;;;;;5128963;28;19938;-73
2023/08/28 10:13:13;;;;;;;0.20;0.17;;;;;;;;;;5129053;27;20047;-73
2023/08/28 10:16:06;;;;;;;0.28;0.20;;;;;;;;;;5132226;27;20047;-74
2023/08/28 10:18:48;;;;;;;0.35;0.30;;;;;;;;;;5132521;27;20134;-73
2023/08/28 10:21:16;;;;;;;0.55;0.30;;;;;;;;;;5132111;27;20051;-74
2023/08/28 10:23:44;;;;;;;1.05;0.60;;;;;;;;;;5132172;27;20051;-73
2023/08/28 10:26:14;;;;;;;0.30;0.30;;;;;;;;;;5132303;27;20047;-73
2023/08/28 10:28:45;;;;;;;0.32;0.30;;;;;;;;;;5130994;27;20442;-74
2023/08/28 10:31:13;;;;;;;2.75;0.40;;;;;;;;;;5132178;27;20440;-74
2023/08/28 10:33:40;;;;;;;0.63;0.40;;;;;;;;;;5131873;27;20138;-73
2023/08/28 10:36:10;;;;;;;0.68;0.40;;;;;;;;;;5131833;27;20039;-73
2023/08/28 10:39:01;;;;;;;0.60;0.30;;;;;;;;;;5131930;27;20081;-72
2023/08/28 10:41:29;;;;;;;1.48;0.45;;;;;;;;;;5132154;27;20407;-72
2023/08/28 10:43:58;;;;;;;1.45;0.57;;;;;;;;;;5131892;27;20465;-73
2023/08/28 10:46:27;;;;;;;0.40;0.40;;;;;;;;;;5132112;27;20131;-73
2023/08/28 10:48:59;;;;;;;0.80;0.47;;;;;;;;;;5131855;27;20483;-73
2023/08/28 10:51:31;;;;;;;0.90;0.40;;;;;;;;;;5131550;27;20054;-73
2023/08/28 10:54:09;;;;;;;1.77;0.50;;;;;;;;;;5131530;27;20039;-73
2023/08/28 10:56:37;;;;;;;2.67;0.68;;;;;;;;;;5131897;27;20495;-73
2023/08/28 10:59:19;;;;;;;2.53;0.70;;;;;;;;;;5131890;27;20404;-72
2023/08/28 11:01:55;;;;;;;1.33;0.50;;;;;;;;;;5131535;27;20086;-73
2023/08/28 11:04:24;;;;;;;0.88;0.50;;;;;;;;;;5131920;27;20078;-73
2023/08/28 11:06:51;;;;;;;0.75;0.50;;;;;;;;;;5131314;27;20464;-73
2023/08/28 11:09:30;;;;;;;0.80;0.50;;;;;;;;;;5131002;27;20057;-72
2023/08/28 11:12:03;;;;;;;0.88;0.40;;;;;;;;;;5131078;27;20096;-73
2023/08/28 11:14:39;;;;;;;1.65;0.60;;;;;;;;;;5131697;27;20060;-72
2023/08/28 11:17:20;;;;;;;1.42;0.65;;;;;;;;;;5131549;27;20046;-73
2023/08/28 11:22:47;;;;;;;3.13;0.80;;;;;;;;;;5130783;27;20051;-73
2023/08/28 11:25:34;;;;;;;0.70;0.40;;;;;;;;;;5127584;27;20051;-73
2023/08/28 11:28:01;;;;;;;1.65;0.57;;;;;;;;;;5131182;27;20118;-73
2023/08/28 11:30:29;;;;;;;0.88;0.52;;;;;;;;;;5131308;27;20046;-73
2023/08/28 11:32:56;;;;;;;0.80;0.50;;;;;;;;;;5130889;27;20047;-73
2023/08/28 11:35:23;;;;;;;1.50;0.60;;;;;;;;;;5131360;27;20043;-73
2023/08/28 11:37:55;;;;;;;1.73;0.60;;;;;;;;;;5130678;27;20518;-73
2023/08/28 11:40:26;;;;;;;2.95;0.65;;;;;;;;;;5131046;27;20051;-73
2023/08/28 11:43:08;;;;;;;0.85;0.50;;;;;;;;;;5130541;27;20047;-73
2023/08/28 11:45:35;;;;;;;0.63;0.50;;;;;;;;;;5130718;27;20495;-73
2023/08/28 11:48:06;;;;;;;0.73;0.50;;;;;;;;;;5130753;27;20283;-74
2023/08/28 11:50:33;;;;;;;;;;;;;;;;;;5131372;27;20080;-73
2023/08/28 11:53:00;;;;;;;0.68;0.50;;;;;;;;;;5129737;27;20022;-73
2023/08/28 11:55:33;;;;;;;0.75;0.43;;;;;;;;;;5130970;27;20050;-73
2023/08/28 11:58:01;;;;;;;0.68;0.38;;;;;;;;;;5130674;27;20046;-73
2023/08/28 12:00:29;;;;;;;0.80;0.35;;;;;;;;;;5130658;27;20666;-73
2023/08/28 12:02:56;;;;;;;0.52;0.40;;;;;;;;;;5130264;27;20111;-72
2023/08/28 12:05:22;;;;;;;1.17;0.70;;;;;;;;;;5130404;27;20087;-73
2023/08/28 12:07:49;;;;;;;1.05;0.57;;;;;;;;;;5130090;27;20074;-73
2023/08/28 12:10:18;;;;;;;7.75;0.70;;;;;;;;;;5130494;27;20059;-73
2023/08/28 12:12:47;;;;;;;2.40;0.60;;;;;;;;;;5130257;27;20078;-72
2023/08/28 12:15:16;;;;;;;2.58;0.60;;;;;;;;;;5129400;27;20062;-72
2023/08/28 12:17:47;;;;;;;5.28;0.43;;;;;;;;;;5130142;27;20497;-72
2023/08/28 12:20:20;;;;;;;0.82;0.40;;;;;;;;;;5130443;27;20050;-73
2023/08/28 12:22:47;;;;;;;2.30;0.38;;;;;;;;;;5129313;27;20055;-74
2023/08/28 12:25:14;;;;;;;0.70;0.50;;;;;;;;;;5129975;27;20591;-73
2023/08/28 12:27:40;;;;;;;1.02;0.50;;;;;;;;;;5130168;27;20073;-73
2023/08/28 12:30:17;;;;;;;1.33;0.52;;;;;;;;;;5130321;27;20057;-73
2023/08/28 12:32:52;;;;;;;1.20;0.60;;;;;;;;;;5129620;27;20085;-73
2023/08/28 12:35:21;;;;;;;2.15;0.65;;;;;;;;;;5129730;27;20043;-73
2023/08/28 12:37:49;;;;;;;1.77;0.50;;;;;;;;;;5128703;27;20043;-73
2023/08/28 12:40:16;;;;;;;4.20;0.50;;;;;;;;;;5128837;27;20142;-73
2023/08/28 12:42:43;;;;;;;2.70;0.60;;;;;;;;;;5128318;27;20047;-73
2023/08/28 12:45:10;;;;;;;1.45;0.60;;;;;;;;;;5129806;27;20400;-73
2023/08/28 12:47:40;;;;;;;2.00;0.52;;;;;;;;;;5129578;27;20043;-73
2023/08/28 12:50:09;;;;;;;1.08;0.50;;;;;;;;;;5129865;27;20039;-73
2023/08/28 12:52:37;;;;;;;2.90;0.60;;;;;;;;;;5129288;27;20039;-74
2023/08/28 12:55:04;;;;;;;0.98;0.50;;;;;;;;;;5129447;27;20514;-74
2023/08/28 12:57:31;;;;;;;0.60;0.40;;;;;;;;;;5129684;27;20049;-74
2023/08/28 12:59:58;;;;;;;1.48;0.68;;;;;;;;;;5129916;27;20050;-73
2023/08/28 13:02:26;;;;;;;1.00;0.50;;;;;;;;;;5129629;27;20047;-73
2023/08/28 13:04:53;;;;;;;1.25;0.65;;;;;;;;;;5129568;27;20047;-74
2023/08/28 13:07:20;;;;;;;1.33;0.43;;;;;;;;;;5129408;27;20039;-73
2023/08/28 13:09:47;;;;;;;1.73;0.77;;;;;;;;;;5128361;28;20073;-73
2023/08/28 13:12:14;;;;;;;2.72;0.88;;;;;;;;;;5128003;28;20594;-73
2023/08/28 13:14:40;;;;;;;1.75;0.85;;;;;;;;;;5129215;28;20054;-73
2023/08/28 13:17:07;;;;;;;2.47;0.77;;;;;;;;;;5129437;28;20050;-73
2023/08/28 13:19:34;;;;;;;1.02;0.80;;;;;;;;;;5129562;28;20044;-73
2023/08/28 13:22:00;;;;;;;2.10;0.75;;;;;;;;;;5129124;28;20051;-74
2023/08/28 13:24:27;;;;;;;2.60;0.80;;;;;;;;;;5129068;27;20049;-73
2023/08/28 13:27:09;;;;;;;1.67;0.65;;;;;;;;;;5129452;27;20043;-73
2023/08/28 13:29:36;;;;;;;2.85;0.70;;;;;;;;;;5129482;27;20131;-72
2023/08/28 13:32:03;;;;;;;2.13;0.70;;;;;;;;;;5129028;27;20047;-73
2023/08/28 13:34:30;;;;;;;2.03;0.93;;;;;;;;;;5144791;27;20050;-73
2023/08/28 13:36:59;;;;;;;1.52;0.60;;;;;;;;;;5129271;27;20578;-73
2023/08/28 13:39:27;;;;;;;1.13;0.50;;;;;;;;;;5128927;27;20391;-74
2023/08/28 13:41:54;;;;;;;1.25;0.60;;;;;;;;;;5129554;28;20127;-74
2023/08/28 13:44:21;;;;;;;2.10;0.55;;;;;;;;;;5129093;27;20050;-72
2023/08/28 13:46:47;;;;;;;1.75;0.52;;;;;;;;;;5129378;27;20039;-74
2023/08/28 13:49:14;;;;;;;1.75;0.70;;;;;;;;;;5132901;27;20097;-73
2023/08/28 13:51:42;;;;;;;1.15;0.60;;;;;;;;;;5133233;27;20047;-73
2023/08/28 13:54:09;;;;;;;3.58;0.80;;;;;;;;;;5132560;27;20043;-73
2023/08/28 13:56:35;;;;;;;1.67;0.52;;;;;;;;;;5133158;27;20050;-73
2023/08/28 13:59:05;;;;;;;1.70;0.57;;;;;;;;;;5132847;27;20053;-73
2023/08/28 14:01:33;;;;;;;1.45;0.60;;;;;;;;;;5132824;27;20056;-73
2023/08/28 14:04:00;;;;;;;2.13;1.05;;;;;;;;;;5132293;27;20495;-73
2023/08/28 14:06:28;;;;;;;2.85;0.82;;;;;;;;;;5132930;27;20123;-74
2023/08/28 14:08:55;;;;;;;0.93;0.80;;;;;;;;;;5132196;27;20537;-73
2023/08/28 14:11:22;;;;;;;1.25;0.60;;;;;;;;;;5132576;27;20050;-73
2023/08/28 14:13:49;;;;;;;3.35;0.82;;;;;;;;;;5132261;27;20574;-73
2023/08/28 14:16:15;;;;;;;4.10;0.90;;;;;;;;;;5132888;27;20054;-72
2023/08/28 14:18:42;;;;;;;1.83;0.75;;;;;;;;;;5132508;27;20055;-73
2023/08/28 14:21:09;;;;;;;3.20;0.90;;;;;;;;;;5132598;27;20451;-73
2023/08/28 14:23:36;;;;;;;2.45;0.90;;;;;;;;;;5131521;27;20051;-73
2023/08/28 14:26:04;;;;;;;5.43;1.05;;;;;;;;;;5132095;27;20063;-73
2023/08/28 14:28:30;;;;;;;1.27;0.70;;;;;;;;;;5131924;27;20484;-73
2023/08/28 14:30:57;;;;;;;2.67;0.98;;;;;;;;;;5132385;27;20047;-73
2023/08/28 14:33:24;;;;;;;1.95;0.85;;;;;;;;;;5131873;27;20051;-74
2023/08/28 14:35:51;;;;;;;1.98;0.90;;;;;;;;;;5130850;27;20089;-74
2023/08/28 14:38:17;;;;;;;2.15;0.77;;;;;;;;;;5131651;27;20142;-72
2023/08/28 14:40:49;;;;;;;3.58;1.00;;;;;;;;;;5132348;27;20055;-70
2023/08/28 14:43:16;;;;;;;2.63;0.98;;;;;;;;;;5131755;27;20099;-72
2023/08/28 14:45:43;;;;;;;2.30;0.90;;;;;;;;;;5132035;27;20130;-75
2023/08/28 14:48:09;;;;;;;1.90;0.95;;;;;;;;;;5131899;27;20051;-73
2023/08/28 14:50:36;;;;;;;2.83;0.90;;;;;;;;;;5132080;27;20530;-73
2023/08/28 14:53:03;;;;;;;1.50;0.90;;;;;;;;;;5131678;27;20069;-74
2023/08/28 14:55:31;;;;;;;1.98;0.93;;;;;;;;;;5147656;27;20535;-74